Time;durP1;ratioP1;P1;durP2;ratioP2;P2;SDS_P1;SDS_P2;PMS_P1;PMS_P2;Temp;Humidity;BMP_temperature;BMP_pressure;BME280_temperature;BME280_humidity;BME280_pressure;Samples;Min_cycle;Max_cycle;Signal;HPM_P1;HPM_P2
2023/01/09 00:00:46;;;;;;;5.80;5.35;;;;;;;;;;5069862;28;20388;-66
2023/01/09 00:03:12;;;;;;;5.53;5.07;;;;;;;;;;5071597;28;20225;-66
2023/01/09 00:05:38;;;;;;;5.97;5.05;;;;;;;;;;5072936;28;20361;-66
2023/01/09 00:08:05;;;;;;;5.50;5.13;;;;;;;;;;5071873;28;20430;-66
2023/01/09 00:10:32;;;;;;;6.38;5.78;;;;;;;;;;5069494;28;20197;-66
2023/01/09 00:12:59;;;;;;;5.65;5.15;;;;;;;;;;5073353;28;20532;-66
2023/01/09 00:15:25;;;;;;;5.43;5.10;;;;;;;;;;5076474;28;20197;-66
2023/01/09 00:17:51;;;;;;;6.15;5.65;;;;;;;;;;5076545;28;20199;-66
2023/01/09 00:20:18;;;;;;;5.15;4.82;;;;;;;;;;5076623;28;20215;-66
2023/01/09 00:22:44;;;;;;;5.95;5.50;;;;;;;;;;5076328;28;20228;-66
2023/01/09 00:25:10;;;;;;;5.55;5.10;;;;;;;;;;5074592;28;20205;-66
2023/01/09 00:27:38;;;;;;;6.68;5.30;;;;;;;;;;5072595;28;20217;-66
2023/01/09 00:30:04;;;;;;;5.25;4.85;;;;;;;;;;5074248;28;20201;-66
2023/01/09 00:32:32;;;;;;;4.15;3.95;;;;;;;;;;5076425;28;20500;-66
2023/01/09 00:34:58;;;;;;;4.90;4.60;;;;;;;;;;5076052;28;20216;-66
2023/01/09 00:37:24;;;;;;;4.50;4.20;;;;;;;;;;5072723;28;20251;-66
2023/01/09 00:39:50;;;;;;;4.75;4.35;;;;;;;;;;5072836;28;20197;-66
2023/01/09 00:42:18;;;;;;;3.90;3.70;;;;;;;;;;5075401;28;20700;-66
2023/01/09 00:44:47;;;;;;;2.70;2.60;;;;;;;;;;5076000;28;20410;-66
2023/01/09 00:47:15;;;;;;;2.90;2.80;;;;;;;;;;5073647;28;20200;-66
2023/01/09 00:49:42;;;;;;;2.72;2.63;;;;;;;;;;5072591;28;20203;-66
2023/01/09 00:52:10;;;;;;;2.88;2.25;;;;;;;;;;5074289;28;20216;-66
2023/01/09 00:54:36;;;;;;;2.50;2.40;;;;;;;;;;5075699;28;20200;-66
2023/01/09 00:57:03;;;;;;;2.67;2.55;;;;;;;;;;5075094;28;20207;-66
2023/01/09 00:59:29;;;;;;;2.55;2.45;;;;;;;;;;5072614;28;20204;-66
2023/01/09 01:01:57;;;;;;;3.13;2.80;;;;;;;;;;5072433;28;20200;-66
2023/01/09 01:09:50;;;;;;;2.65;2.63;;;;;;;;;;5075707;28;20239;-66
2023/01/09 01:12:17;;;;;;;2.70;2.60;;;;;;;;;;5072841;28;20409;-66
2023/01/09 01:14:43;;;;;;;2.50;2.40;;;;;;;;;;5072073;28;20532;-66
2023/01/09 01:17:11;;;;;;;2.40;2.40;;;;;;;;;;5073981;28;20497;-66
2023/01/09 01:19:37;;;;;;;2.40;2.40;;;;;;;;;;5075497;28;20208;-66
2023/01/09 01:22:03;;;;;;;3.13;2.75;;;;;;;;;;5074229;28;20208;-66
2023/01/09 01:24:30;;;;;;;2.55;2.38;;;;;;;;;;5071753;28;20217;-66
2023/01/09 01:26:56;;;;;;;2.28;2.28;;;;;;;;;;5071841;28;20209;-66
2023/01/09 01:29:22;;;;;;;2.75;2.55;;;;;;;;;;5067218;28;20531;-66
2023/01/09 01:31:49;;;;;;;2.60;2.45;;;;;;;;;;5075247;28;20204;-66
2023/01/09 01:34:16;;;;;;;2.42;2.25;;;;;;;;;;5073034;28;20215;-66
2023/01/09 01:36:43;;;;;;;2.17;2.08;;;;;;;;;;5071581;28;20449;-66
2023/01/09 01:39:09;;;;;;;2.13;2.13;;;;;;;;;;5073602;28;20201;-66
2023/01/09 01:41:36;;;;;;;1.92;1.88;;;;;;;;;;5075171;28;20203;-66
2023/01/09 01:44:04;;;;;;;2.53;2.42;;;;;;;;;;5074077;28;20223;-66
2023/01/09 01:46:31;;;;;;;2.30;2.10;;;;;;;;;;5071381;28;20523;-66
2023/01/09 01:49:10;;;;;;;2.00;2.00;;;;;;;;;;5071554;28;20296;-66
2023/01/09 01:51:39;;;;;;;2.30;2.10;;;;;;;;;;5075063;28;20227;-66
2023/01/09 01:54:08;;;;;;;1.77;1.60;;;;;;;;;;5073539;28;20388;-66
2023/01/09 01:56:36;;;;;;;1.70;1.65;;;;;;;;;;5071546;28;20481;-66
2023/01/09 01:59:05;;;;;;;1.90;1.90;;;;;;;;;;5071896;28;20391;-66
2023/01/09 02:01:32;;;;;;;1.40;1.40;;;;;;;;;;5074942;28;20496;-66
2023/01/09 02:03:59;;;;;;;1.50;1.50;;;;;;;;;;5074475;28;20437;-66
2023/01/09 02:06:26;;;;;;;1.10;1.10;;;;;;;;;;5071063;28;20197;-66
2023/01/09 02:08:54;;;;;;;1.00;1.00;;;;;;;;;;5071136;28;20517;-66
2023/01/09 02:11:20;;;;;;;1.23;1.23;;;;;;;;;;5073799;28;20203;-66
2023/01/09 02:13:47;;;;;;;1.50;1.40;;;;;;;;;;5074607;28;20192;-67
2023/01/09 02:16:23;;;;;;;1.33;1.33;;;;;;;;;;5071913;28;20207;-67
2023/01/09 02:18:51;;;;;;;1.33;1.17;;;;;;;;;;5070927;28;20254;-67
2023/01/09 02:21:22;;;;;;;1.30;1.20;;;;;;;;;;5073436;28;20235;-67
2023/01/09 02:24:07;;;;;;;1.60;1.10;;;;;;;;;;5067231;28;20418;-67
2023/01/09 02:26:56;;;;;;;1.05;0.73;;;;;;;;;;5070596;28;20428;-67
2023/01/09 02:29:41;;;;;;;0.80;0.80;;;;;;;;;;5070556;28;20225;-67
2023/01/09 02:32:15;;;;;;;0.93;0.75;;;;;;;;;;5072152;28;20400;-67
2023/01/09 02:34:46;;;;;;;0.60;0.60;;;;;;;;;;5073598;28;20193;-67
2023/01/09 02:37:16;;;;;;;0.70;0.70;;;;;;;;;;5074042;28;20201;-67
2023/01/09 02:39:46;;;;;;;0.60;0.60;;;;;;;;;;5073814;28;20203;-67
2023/01/09 02:42:15;;;;;;;0.60;0.60;;;;;;;;;;5071718;28;20215;-67
2023/01/09 02:44:43;;;;;;;0.60;0.60;;;;;;;;;;5070079;28;20213;-67
2023/01/09 02:47:24;;;;;;;0.90;0.60;;;;;;;;;;5071808;28;20309;-67
2023/01/09 02:49:53;;;;;;;0.60;0.60;;;;;;;;;;5073500;28;20196;-67
2023/01/09 02:52:25;;;;;;;0.50;0.50;;;;;;;;;;5070555;28;20205;-67
2023/01/09 02:54:55;;;;;;;0.93;0.50;;;;;;;;;;5070098;28;20197;-67
2023/01/09 02:57:35;;;;;;;0.50;0.50;;;;;;;;;;5073478;28;20203;-67
2023/01/09 03:00:05;;;;;;;0.50;0.50;;;;;;;;;;5073014;28;20246;-67
2023/01/09 03:02:38;;;;;;;0.45;0.45;;;;;;;;;;5070167;28;20197;-67
2023/01/09 03:05:08;;;;;;;0.40;0.40;;;;;;;;;;5070973;28;20217;-67
2023/01/09 03:07:37;;;;;;;0.40;0.40;;;;;;;;;;5073454;28;20211;-67
2023/01/09 03:10:08;;;;;;;0.40;0.40;;;;;;;;;;5072448;28;20200;-67
2023/01/09 03:12:35;;;;;;;0.30;0.30;;;;;;;;;;5070379;28;20535;-67
2023/01/09 03:15:04;;;;;;;0.50;0.50;;;;;;;;;;5070840;28;20452;-67
2023/01/09 03:17:32;;;;;;;0.40;0.40;;;;;;;;;;5073612;28;20202;-67
2023/01/09 03:20:00;;;;;;;0.40;0.40;;;;;;;;;;5072849;28;20204;-67
2023/01/09 03:22:28;;;;;;;0.30;0.30;;;;;;;;;;5069849;28;20201;-67
2023/01/09 03:24:54;;;;;;;1.00;0.20;;;;;;;;;;5069755;28;20220;-67
2023/01/09 03:27:21;;;;;;;0.22;0.22;;;;;;;;;;5070067;28;20312;-67
2023/01/09 03:29:47;;;;;;;0.30;0.30;;;;;;;;;;5070045;28;20485;-67
2023/01/09 03:32:13;;;;;;;0.30;0.30;;;;;;;;;;5071965;28;20201;-67
2023/01/09 03:34:39;;;;;;;0.20;0.20;;;;;;;;;;5073227;28;20399;-67
2023/01/09 03:37:06;;;;;;;0.17;0.17;;;;;;;;;;5072075;28;20256;-67
2023/01/09 03:39:33;;;;;;;0.10;0.10;;;;;;;;;;5069981;28;20204;-67
2023/01/09 03:42:00;;;;;;;2.00;0.30;;;;;;;;;;5070201;28;20512;-67
2023/01/09 03:44:26;;;;;;;1.08;0.20;;;;;;;;;;5073280;28;20446;-67
2023/01/09 03:46:52;;;;;;;0.28;0.28;;;;;;;;;;5075198;28;20502;-67
2023/01/09 03:49:19;;;;;;;0.20;0.20;;;;;;;;;;5074072;28;20197;-67
2023/01/09 03:51:45;;;;;;;0.20;0.20;;;;;;;;;;5073772;28;20213;-67
2023/01/09 03:54:11;;;;;;;0.30;0.20;;;;;;;;;;5075561;28;20200;-67
2023/01/09 03:56:39;;;;;;;0.20;0.20;;;;;;;;;;5077043;28;20519;-67
2023/01/09 03:59:05;;;;;;;0.85;0.40;;;;;;;;;;5075778;28;20208;-67
2023/01/09 04:01:32;;;;;;;0.30;0.30;;;;;;;;;;5073400;28;20197;-67
2023/01/09 04:03:58;;;;;;;0.20;0.20;;;;;;;;;;5073619;28;20225;-67
2023/01/09 04:06:25;;;;;;;0.63;0.30;;;;;;;;;;5076840;28;20202;-67
2023/01/09 04:08:51;;;;;;;1.23;0.32;;;;;;;;;;5076852;28;20211;-67
2023/01/09 04:11:17;;;;;;;0.35;0.20;;;;;;;;;;5074006;28;20296;-67
2023/01/09 04:13:45;;;;;;;0.32;0.30;;;;;;;;;;5073751;28;20204;-67
2023/01/09 04:16:11;;;;;;;0.32;0.32;;;;;;;;;;5074761;28;20259;-67
2023/01/09 04:18:37;;;;;;;0.30;0.30;;;;;;;;;;5076730;28;20368;-67
2023/01/09 04:21:04;;;;;;;0.20;0.20;;;;;;;;;;5075716;28;20200;-67
2023/01/09 04:23:30;;;;;;;0.40;0.40;;;;;;;;;;5073100;28;20197;-67
2023/01/09 04:25:56;;;;;;;0.40;0.40;;;;;;;;;;5072754;28;20224;-67
2023/01/09 04:28:22;;;;;;;1.13;0.30;;;;;;;;;;5073041;28;20567;-67
2023/01/09 04:30:50;;;;;;;1.27;0.38;;;;;;;;;;5072828;28;20501;-67
2023/01/09 04:33:16;;;;;;;0.20;0.20;;;;;;;;;;5075777;28;20399;-67
2023/01/09 04:35:42;;;;;;;0.40;0.25;;;;;;;;;;5076077;28;20197;-67
2023/01/09 04:38:09;;;;;;;0.30;0.30;;;;;;;;;;5074676;28;20242;-67
2023/01/09 04:40:35;;;;;;;0.55;0.25;;;;;;;;;;5072868;28;20204;-67
2023/01/09 04:43:01;;;;;;;1.15;0.35;;;;;;;;;;5072621;28;20214;-67
2023/01/09 04:45:27;;;;;;;1.88;0.40;;;;;;;;;;5072324;28;20212;-67
2023/01/09 04:47:55;;;;;;;0.68;0.35;;;;;;;;;;5072562;28;20505;-67
2023/01/09 04:50:21;;;;;;;0.90;0.30;;;;;;;;;;5076108;28;20413;-67
2023/01/09 04:52:47;;;;;;;1.75;0.30;;;;;;;;;;5076122;28;20426;-67
2023/01/09 04:55:14;;;;;;;0.50;0.20;;;;;;;;;;5073481;28;20437;-67
2023/01/09 04:57:40;;;;;;;0.30;0.30;;;;;;;;;;5071863;28;20200;-67
2023/01/09 05:00:08;;;;;;;0.20;0.20;;;;;;;;;;5073751;28;20213;-67
2023/01/09 05:02:34;;;;;;;0.45;0.45;;;;;;;;;;5076038;28;20207;-67
2023/01/09 05:05:02;;;;;;;0.20;0.20;;;;;;;;;;5075730;28;20220;-67
2023/01/09 05:07:28;;;;;;;0.20;0.20;;;;;;;;;;5075673;28;20196;-67
2023/01/09 05:09:55;;;;;;;0.65;0.20;;;;;;;;;;5075899;28;20203;-67
2023/01/09 05:12:21;;;;;;;0.80;0.40;;;;;;;;;;5072195;28;20276;-67
2023/01/09 05:14:47;;;;;;;0.30;0.30;;;;;;;;;;5072329;28;20198;-67
2023/01/09 05:17:13;;;;;;;0.20;0.20;;;;;;;;;;5074207;28;20201;-67
2023/01/09 05:19:40;;;;;;;2.65;0.30;;;;;;;;;;5075718;28;20197;-67
2023/01/09 05:22:07;;;;;;;0.25;0.25;;;;;;;;;;5075371;28;20512;-67
2023/01/09 05:24:33;;;;;;;0.30;0.30;;;;;;;;;;5075309;28;20220;-67
2023/01/09 05:27:01;;;;;;;0.30;0.30;;;;;;;;;;5074755;28;20208;-67
2023/01/09 05:29:27;;;;;;;0.35;0.20;;;;;;;;;;5072005;28;20397;-67
2023/01/09 05:31:54;;;;;;;0.95;0.50;;;;;;;;;;5072054;28;20386;-67
2023/01/09 05:34:20;;;;;;;0.30;0.30;;;;;;;;;;5074869;28;20391;-67
2023/01/09 05:36:46;;;;;;;0.30;0.30;;;;;;;;;;5072890;28;20198;-67
2023/01/09 05:39:14;;;;;;;0.22;0.22;;;;;;;;;;5071642;28;20200;-67
2023/01/09 05:41:40;;;;;;;0.30;0.30;;;;;;;;;;5071543;28;20205;-67
2023/01/09 05:44:06;;;;;;;0.30;0.30;;;;;;;;;;5072903;28;20562;-67
2023/01/09 05:46:32;;;;;;;0.30;0.30;;;;;;;;;;5074880;28;20263;-67
2023/01/09 05:48:59;;;;;;;0.30;0.30;;;;;;;;;;5074753;28;20204;-67
2023/01/09 05:51:25;;;;;;;0.57;0.40;;;;;;;;;;5071427;28;20197;-67
2023/01/09 05:53:51;;;;;;;1.20;0.90;;;;;;;;;;5071335;28;20193;-69
2023/01/09 05:56:19;;;;;;;1.13;0.40;;;;;;;;;;5073661;28;20196;-67
2023/01/09 05:58:45;;;;;;;2.08;0.60;;;;;;;;;;5074555;28;20200;-67
2023/01/09 06:01:11;;;;;;;0.60;0.57;;;;;;;;;;5072491;28;20204;-67
2023/01/09 06:03:38;;;;;;;0.40;0.40;;;;;;;;;;5071012;28;20197;-67
2023/01/09 06:06:04;;;;;;;0.70;0.70;;;;;;;;;;5071292;28;20217;-67
2023/01/09 06:08:30;;;;;;;0.75;0.63;;;;;;;;;;5073472;28;20492;-67
2023/01/09 06:10:57;;;;;;;2.22;0.75;;;;;;;;;;5074052;28;20557;-67
2023/01/09 06:13:24;;;;;;;0.35;0.30;;;;;;;;;;5074234;28;20507;-67
2023/01/09 06:15:50;;;;;;;1.38;0.40;;;;;;;;;;5073930;28;20193;-67
2023/01/09 06:18:17;;;;;;;0.40;0.40;;;;;;;;;;5071266;28;20207;-67
2023/01/09 06:20:44;;;;;;;0.40;0.40;;;;;;;;;;5070487;28;20208;-67
2023/01/09 06:23:10;;;;;;;1.38;0.47;;;;;;;;;;5071948;28;20211;-67
2023/01/09 06:25:36;;;;;;;0.47;0.47;;;;;;;;;;5076742;28;20217;-67
2023/01/09 06:28:02;;;;;;;0.20;0.20;;;;;;;;;;5071000;28;20227;-67
2023/01/09 06:30:30;;;;;;;0.35;0.30;;;;;;;;;;5073878;28;20371;-67
2023/01/09 06:32:56;;;;;;;0.30;0.30;;;;;;;;;;5073808;28;20212;-67
2023/01/09 06:35:23;;;;;;;0.30;0.30;;;;;;;;;;5062265;28;20272;-67
2023/01/09 06:37:49;;;;;;;1.25;0.38;;;;;;;;;;5069933;28;20258;-67
2023/01/09 06:40:16;;;;;;;1.80;0.50;;;;;;;;;;5072721;28;20517;-67
2023/01/09 06:42:43;;;;;;;1.05;0.40;;;;;;;;;;5073781;28;20203;-67
2023/01/09 06:45:09;;;;;;;0.50;0.50;;;;;;;;;;5065311;28;20221;-67
2023/01/09 06:47:38;;;;;;;1.50;0.50;;;;;;;;;;5073486;28;20196;-67
2023/01/09 06:50:04;;;;;;;1.58;0.40;;;;;;;;;;5072456;28;20403;-67
2023/01/09 06:52:30;;;;;;;0.60;0.60;;;;;;;;;;5069889;28;20197;-67
2023/01/09 06:54:57;;;;;;;0.60;0.60;;;;;;;;;;5070125;28;20251;-68
2023/01/09 06:57:23;;;;;;;1.65;0.40;;;;;;;;;;5070049;28;20204;-68
2023/01/09 06:59:49;;;;;;;0.50;0.50;;;;;;;;;;5070272;28;20204;-68
2023/01/09 07:02:17;;;;;;;2.15;0.65;;;;;;;;;;5072447;28;20201;-68
2023/01/09 07:04:45;;;;;;;0.75;0.60;;;;;;;;;;5073186;28;20196;-68
2023/01/09 07:07:11;;;;;;;0.57;0.50;;;;;;;;;;5071249;28;20200;-68
2023/01/09 07:09:37;;;;;;;2.17;0.77;;;;;;;;;;5067291;28;20203;-67
2023/01/09 07:12:04;;;;;;;0.52;0.52;;;;;;;;;;5072503;28;20201;-67
2023/01/09 07:14:30;;;;;;;1.58;0.57;;;;;;;;;;5069906;28;20310;-68
2023/01/09 07:16:56;;;;;;;1.55;0.50;;;;;;;;;;5069609;28;20250;-68
2023/01/09 07:19:23;;;;;;;1.17;0.60;;;;;;;;;;5061523;28;20433;-68
2023/01/09 07:21:50;;;;;;;2.47;0.52;;;;;;;;;;5069650;28;20201;-68
2023/01/09 07:24:17;;;;;;;1.77;0.52;;;;;;;;;;5072496;28;20208;-68
2023/01/09 07:26:43;;;;;;;1.38;0.63;;;;;;;;;;5073053;28;20219;-68
2023/01/09 07:29:09;;;;;;;1.08;0.70;;;;;;;;;;5071358;28;20265;-68
2023/01/09 07:31:35;;;;;;;0.57;0.57;;;;;;;;;;5069792;28;20216;-68
2023/01/09 07:34:02;;;;;;;3.13;0.80;;;;;;;;;;5069883;28;20201;-68
2023/01/09 07:36:28;;;;;;;1.33;0.50;;;;;;;;;;5072885;28;20200;-68
2023/01/09 07:38:55;;;;;;;2.50;0.75;;;;;;;;;;5073389;28;20203;-68
2023/01/09 07:41:22;;;;;;;2.97;0.73;;;;;;;;;;5073187;28;20204;-68
2023/01/09 07:43:48;;;;;;;1.00;0.70;;;;;;;;;;5073192;28;20395;-68
2023/01/09 07:46:14;;;;;;;0.60;0.47;;;;;;;;;;5070387;28;20227;-68
2023/01/09 07:48:40;;;;;;;1.52;0.52;;;;;;;;;;5055500;28;20414;-68
2023/01/09 07:51:07;;;;;;;1.30;0.60;;;;;;;;;;5060900;28;20209;-68
2023/01/09 07:53:33;;;;;;;1.83;0.65;;;;;;;;;;5075216;28;20244;-56
2023/01/09 07:56:01;;;;;;;3.05;0.70;;;;;;;;;;5070657;28;20219;-60
2023/01/09 07:58:27;;;;;;;0.70;0.45;;;;;;;;;;5067853;28;20212;-58
2023/01/09 08:00:53;;;;;;;2.05;0.40;;;;;;;;;;5075721;28;20216;-58
2023/01/09 08:03:20;;;;;;;0.70;0.60;;;;;;;;;;5064456;28;20213;-58
2023/01/09 08:05:46;;;;;;;0.98;0.50;;;;;;;;;;5062343;28;20225;-58
2023/01/09 08:08:13;;;;;;;1.38;0.63;;;;;;;;;;5068780;28;20511;-58
2023/01/09 08:10:40;;;;;;;1.25;0.65;;;;;;;;;;5071424;28;20432;-59
2023/01/09 08:13:07;;;;;;;1.35;0.70;;;;;;;;;;5077369;28;20224;-57
2023/01/09 08:15:34;;;;;;;1.90;1.20;;;;;;;;;;5076561;28;20229;-58
2023/01/09 08:18:00;;;;;;;0.50;0.50;;;;;;;;;;5073563;28;20216;-59
2023/01/09 08:20:27;;;;;;;1.95;0.63;;;;;;;;;;5071970;28;20216;-57
2023/01/09 08:22:54;;;;;;;1.05;0.55;;;;;;;;;;5074320;28;20447;-59
2023/01/09 08:25:20;;;;;;;0.95;0.80;;;;;;;;;;5074679;28;20575;-59
2023/01/09 08:27:46;;;;;;;1.38;0.90;;;;;;;;;;5074229;28;20228;-59
2023/01/09 08:30:15;;;;;;;1.20;0.52;;;;;;;;;;5073193;28;20223;-59
2023/01/09 08:32:41;;;;;;;1.20;0.55;;;;;;;;;;5077984;28;20267;-59
2023/01/09 08:35:08;;;;;;;1.10;0.82;;;;;;;;;;5076852;28;20258;-59
2023/01/09 08:37:34;;;;;;;1.23;0.85;;;;;;;;;;5076640;28;20458;-59
2023/01/09 08:40:00;;;;;;;3.85;0.80;;;;;;;;;;5082568;28;20216;-59
2023/01/09 08:47:56;;;;;;;1.55;0.65;;;;;;;;;;5065576;28;20573;-58
2023/01/09 08:50:22;;;;;;;1.85;0.77;;;;;;;;;;5076704;28;20224;-59
2023/01/09 08:52:49;;;;;;;3.10;0.52;;;;;;;;;;5076875;28;20516;-59
2023/01/09 08:55:15;;;;;;;2.72;0.77;;;;;;;;;;5084040;28;20551;-59
2023/01/09 08:57:47;;;;;;;1.42;0.60;;;;;;;;;;5075604;28;20242;-57
2023/01/09 09:00:17;;;;;;;1.48;0.77;;;;;;;;;;5073268;28;20221;-59
2023/01/09 09:02:43;;;;;;;1.83;0.80;;;;;;;;;;5082346;28;20219;-60
2023/01/09 09:05:11;;;;;;;2.10;0.77;;;;;;;;;;5076179;28;20212;-59
2023/01/09 09:07:37;;;;;;;0.70;0.70;;;;;;;;;;5079402;28;20563;-60
2023/01/09 09:10:04;;;;;;;4.05;0.70;;;;;;;;;;5068045;28;20226;-58
2023/01/09 09:12:30;;;;;;;2.63;1.20;;;;;;;;;;5076090;28;20500;-59
2023/01/09 09:15:22;;;;;;;1.83;0.70;;;;;;;;;;5075425;28;20581;-59
2023/01/09 09:17:48;;;;;;;2.60;0.88;;;;;;;;;;5065393;28;20434;-59
2023/01/09 09:20:16;;;;;;;1.77;0.50;;;;;;;;;;5074866;28;20216;-59
2023/01/09 09:22:42;;;;;;;1.25;0.85;;;;;;;;;;5075877;28;20217;-59
2023/01/09 09:25:10;;;;;;;1.40;0.70;;;;;;;;;;5074558;28;20244;-58
2023/01/09 09:27:36;;;;;;;1.15;0.70;;;;;;;;;;5076304;28;20232;-57
2023/01/09 09:30:03;;;;;;;2.25;0.80;;;;;;;;;;5075732;28;20242;-59
2023/01/09 09:32:30;;;;;;;5.45;0.95;;;;;;;;;;5075595;28;20212;-59
2023/01/09 09:34:57;;;;;;;1.80;0.80;;;;;;;;;;5076126;28;20472;-59
2023/01/09 09:37:24;;;;;;;2.95;0.60;;;;;;;;;;5075235;28;20216;-59
2023/01/09 09:39:50;;;;;;;2.90;0.77;;;;;;;;;;5070993;28;20535;-58
2023/01/09 09:45:18;;;;;;;5.10;1.23;;;;;;;;;;5075778;28;20251;-59
2023/01/09 09:47:48;;;;;;;2.47;0.93;;;;;;;;;;5080667;28;20534;-59
2023/01/09 09:50:21;;;;;;;3.90;0.88;;;;;;;;;;5067380;28;20220;-59
2023/01/09 09:52:51;;;;;;;6.53;1.20;;;;;;;;;;5072623;28;20547;-58
2023/01/09 09:55:18;;;;;;;1.55;0.98;;;;;;;;;;5074714;28;20457;-59
2023/01/09 09:57:45;;;;;;;2.30;0.73;;;;;;;;;;5078929;28;20219;-59
2023/01/09 10:00:15;;;;;;;4.85;1.25;;;;;;;;;;5075648;28;20303;-59
2023/01/09 10:02:45;;;;;;;5.38;1.00;;;;;;;;;;5069800;28;20221;-58
2023/01/09 10:05:15;;;;;;;2.20;0.70;;;;;;;;;;5075593;28;20216;-59
2023/01/09 10:07:45;;;;;;;2.75;0.82;;;;;;;;;;5076026;28;20227;-59
2023/01/09 10:10:15;;;;;;;2.35;0.75;;;;;;;;;;5082028;28;20216;-59
2023/01/09 10:12:45;;;;;;;2.92;1.10;;;;;;;;;;5076387;28;20522;-58
2023/01/09 10:15:15;;;;;;;3.30;1.13;;;;;;;;;;5075478;28;20220;-58
2023/01/09 10:17:46;;;;;;;6.75;0.90;;;;;;;;;;5068742;28;20216;-57
2023/01/09 10:20:30;;;;;;;2.10;0.90;;;;;;;;;;5075325;28;20231;-58
2023/01/09 10:23:02;;;;;;;2.28;0.90;;;;;;;;;;5075423;28;20220;-59
2023/01/09 10:25:34;;;;;;;1.42;0.82;;;;;;;;;;5068312;28;20443;-58
2023/01/09 10:28:08;;;;;;;1.05;0.90;;;;;;;;;;5075270;28;20229;-57
2023/01/09 10:30:37;;;;;;;2.70;0.95;;;;;;;;;;5067886;28;20212;-58
2023/01/09 10:33:09;;;;;;;1.30;0.68;;;;;;;;;;5075013;28;20244;-58
2023/01/09 10:35:41;;;;;;;1.88;0.70;;;;;;;;;;5070750;28;20500;-58
2023/01/09 10:38:07;;;;;;;4.97;0.80;;;;;;;;;;5073007;28;20220;-59
2023/01/09 10:40:39;;;;;;;2.00;0.77;;;;;;;;;;5075440;28;20216;-58
2023/01/09 10:43:09;;;;;;;2.20;1.00;;;;;;;;;;5071808;28;20224;-58
2023/01/09 10:45:38;;;;;;;3.53;1.00;;;;;;;;;;5072597;28;20250;-61
2023/01/09 10:48:09;;;;;;;4.75;0.90;;;;;;;;;;5074387;28;20216;-61
2023/01/09 10:50:38;;;;;;;2.65;1.10;;;;;;;;;;5069094;28;20213;-58
2023/01/09 10:53:07;;;;;;;2.15;0.70;;;;;;;;;;5063955;28;20220;-59
2023/01/09 10:55:35;;;;;;;1.13;1.13;;;;;;;;;;5059420;28;20234;-57
2023/01/09 10:58:10;;;;;;;1.88;0.75;;;;;;;;;;5060861;28;20328;-57
2023/01/09 11:00:37;;;;;;;2.60;0.90;;;;;;;;;;5062069;28;20235;-59
2023/01/09 11:03:03;;;;;;;3.83;0.60;;;;;;;;;;5079714;28;20527;-56
2023/01/09 11:05:30;;;;;;;4.07;0.98;;;;;;;;;;5056852;28;20213;-59
2023/01/09 11:07:58;;;;;;;3.60;1.08;;;;;;;;;;5082461;28;20427;-59
2023/01/09 11:10:43;;;;;;;3.47;0.93;;;;;;;;;;5064733;28;20220;-59
2023/01/09 11:13:14;;;;;;;2.67;1.00;;;;;;;;;;5069211;28;20244;-58
2023/01/09 11:15:40;;;;;;;4.75;1.02;;;;;;;;;;5072093;28;20207;-59
2023/01/09 11:18:17;;;;;;;2.75;0.90;;;;;;;;;;5072864;28;20212;-59
2023/01/09 11:20:43;;;;;;;4.82;0.90;;;;;;;;;;5067649;28;20455;-59
2023/01/09 11:23:23;;;;;;;2.95;0.70;;;;;;;;;;5066820;28;20285;-59
2023/01/09 11:25:52;;;;;;;4.13;0.82;;;;;;;;;;5066436;28;20447;-59
2023/01/09 11:28:19;;;;;;;4.13;1.10;;;;;;;;;;5075806;28;20228;-60
2023/01/09 11:30:51;;;;;;;2.40;1.00;;;;;;;;;;5070312;28;20537;-60
2023/01/09 11:33:20;;;;;;;2.60;0.75;;;;;;;;;;5077342;28;20257;-60
2023/01/09 11:35:53;;;;;;;2.45;0.90;;;;;;;;;;5066090;28;20418;-60
2023/01/09 11:38:20;;;;;;;3.83;0.77;;;;;;;;;;5064176;28;20209;-59
2023/01/09 11:40:48;;;;;;;4.55;1.13;;;;;;;;;;5064768;28;20216;-60
2023/01/09 11:43:16;;;;;;;5.15;0.80;;;;;;;;;;5057974;28;20209;-58
2023/01/09 11:45:45;;;;;;;2.55;1.00;;;;;;;;;;5060961;28;20213;-63
2023/01/09 11:48:19;;;;;;;3.45;1.02;;;;;;;;;;5062011;28;20224;-61
2023/01/09 11:50:53;;;;;;;3.42;0.98;;;;;;;;;;5070683;28;20212;-61
2023/01/09 11:53:20;;;;;;;2.70;1.15;;;;;;;;;;5075316;28;20212;-61
2023/01/09 11:55:48;;;;;;;2.60;1.10;;;;;;;;;;5061618;28;20276;-61
2023/01/09 11:58:16;;;;;;;4.43;1.02;;;;;;;;;;5077498;28;20233;-61
2023/01/09 12:00:57;;;;;;;6.00;1.48;;;;;;;;;;5070160;28;20337;-59
2023/01/09 12:03:29;;;;;;;0.95;0.88;;;;;;;;;;5055692;28;20216;-59
2023/01/09 12:05:59;;;;;;;2.17;0.98;;;;;;;;;;5064700;28;20532;-58
2023/01/09 12:08:35;;;;;;;2.72;0.95;;;;;;;;;;5076439;28;20233;-60
2023/01/09 12:11:15;;;;;;;1.88;0.80;;;;;;;;;;5078495;28;20498;-61
2023/01/09 12:13:49;;;;;;;3.38;1.08;;;;;;;;;;5072824;28;20208;-60
2023/01/09 12:16:21;;;;;;;3.95;1.52;;;;;;;;;;5074933;28;20218;-60
2023/01/09 12:19:09;;;;;;;6.38;1.48;;;;;;;;;;5065652;28;20399;-60
2023/01/09 12:21:40;;;;;;;5.00;2.20;;;;;;;;;;5072452;28;20528;-61
2023/01/09 12:24:17;;;;;;;2.90;2.42;;;;;;;;;;5081324;28;20442;-60
2023/01/09 12:26:48;;;;;;;5.07;1.60;;;;;;;;;;5067251;28;20235;-61
2023/01/09 12:29:23;;;;;;;3.55;1.90;;;;;;;;;;5062558;28;20233;-61
2023/01/09 12:32:00;;;;;;;4.20;1.30;;;;;;;;;;5080653;28;20511;-61
2023/01/09 12:34:36;;;;;;;3.35;1.90;;;;;;;;;;5072617;28;20391;-60
2023/01/09 12:37:09;;;;;;;7.88;1.80;;;;;;;;;;5078138;28;20208;-60
2023/01/09 12:39:40;;;;;;;6.00;1.55;;;;;;;;;;5069214;28;20213;-60
2023/01/09 12:42:14;;;;;;;2.65;1.17;;;;;;;;;;5072250;28;20220;-59
2023/01/09 12:44:46;;;;;;;4.13;1.30;;;;;;;;;;5075230;28;20209;-60
2023/01/09 12:47:21;;;;;;;3.85;1.15;;;;;;;;;;5079082;28;20430;-61
2023/01/09 12:49:52;;;;;;;3.97;0.80;;;;;;;;;;5067769;28;20209;-60
2023/01/09 12:52:22;;;;;;;2.80;1.00;;;;;;;;;;5070386;28;20220;-59
2023/01/09 12:54:51;;;;;;;4.47;0.98;;;;;;;;;;5066391;28;20554;-60
2023/01/09 12:57:21;;;;;;;2.70;0.98;;;;;;;;;;5066892;28;20212;-60
2023/01/09 12:59:50;;;;;;;3.83;1.30;;;;;;;;;;5071570;28;20236;-60
2023/01/09 13:02:23;;;;;;;1.48;1.08;;;;;;;;;;5066554;28;20432;-60
2023/01/09 13:04:52;;;;;;;4.88;1.02;;;;;;;;;;5068332;28;20554;-60
2023/01/09 13:07:21;;;;;;;6.22;1.45;;;;;;;;;;5068823;28;20544;-60
2023/01/09 13:09:48;;;;;;;4.13;1.10;;;;;;;;;;5070816;28;20215;-60
2023/01/09 13:12:17;;;;;;;3.47;0.77;;;;;;;;;;5068732;28;20213;-60
2023/01/09 13:14:47;;;;;;;3.08;1.02;;;;;;;;;;5068453;28;20629;-60
2023/01/09 13:17:16;;;;;;;2.05;1.02;;;;;;;;;;5066825;28;20243;-60
2023/01/09 13:19:44;;;;;;;1.75;0.70;;;;;;;;;;5068353;28;20209;-60
2023/01/09 13:22:11;;;;;;;3.60;0.95;;;;;;;;;;5073453;28;20216;-60
2023/01/09 13:24:45;;;;;;;3.42;0.70;;;;;;;;;;5066318;28;20213;-60
2023/01/09 13:27:14;;;;;;;3.28;0.95;;;;;;;;;;5068766;28;21178;-60
2023/01/09 13:29:42;;;;;;;1.10;0.98;;;;;;;;;;5068306;28;20213;-58
2023/01/09 13:32:16;;;;;;;2.13;0.75;;;;;;;;;;5067173;28;20213;-59
2023/01/09 13:34:46;;;;;;;3.63;0.90;;;;;;;;;;5067906;28;20543;-59
2023/01/09 13:37:20;;;;;;;2.38;0.80;;;;;;;;;;5070438;28;20520;-59
2023/01/09 13:39:54;;;;;;;3.67;0.80;;;;;;;;;;5068526;28;20208;-59
2023/01/09 13:42:37;;;;;;;2.83;0.60;;;;;;;;;;5067996;28;20212;-60
2023/01/09 13:45:10;;;;;;;2.58;0.70;;;;;;;;;;5070193;28;20462;-60
2023/01/09 13:47:36;;;;;;;1.38;0.93;;;;;;;;;;5074992;28;20236;-59
2023/01/09 13:50:23;;;;;;;0.60;0.60;;;;;;;;;;5064991;28;20212;-60
2023/01/09 13:52:50;;;;;;;1.30;0.52;;;;;;;;;;5069942;28;20539;-60
2023/01/09 13:55:34;;;;;;;0.40;0.40;;;;;;;;;;5069737;28;20213;-60
2023/01/09 13:58:21;;;;;;;0.50;0.50;;;;;;;;;;5073182;28;20209;-60
2023/01/09 14:00:54;;;;;;;0.50;0.50;;;;;;;;;;5072491;28;20231;-58
2023/01/09 14:03:24;;;;;;;1.00;0.60;;;;;;;;;;5079260;28;20546;-57
2023/01/09 14:06:12;;;;;;;0.35;0.30;;;;;;;;;;5078146;28;20208;-58
2023/01/09 14:08:40;;;;;;;1.80;0.50;;;;;;;;;;5073845;28;20426;-59
2023/01/09 14:11:07;;;;;;;0.65;0.47;;;;;;;;;;5077412;28;20404;-59
2023/01/09 14:13:34;;;;;;;1.05;0.90;;;;;;;;;;5075978;28;20549;-57
2023/01/09 14:16:05;;;;;;;0.45;0.45;;;;;;;;;;5075587;28;20212;-59
2023/01/09 14:18:32;;;;;;;0.50;0.50;;;;;;;;;;5077384;28;20411;-58
2023/01/09 14:20:59;;;;;;;0.73;0.50;;;;;;;;;;5078470;28;20212;-58
2023/01/09 14:23:29;;;;;;;0.80;0.60;;;;;;;;;;5069425;28;20251;-59
2023/01/09 14:25:55;;;;;;;1.23;0.50;;;;;;;;;;5081388;28;20250;-57
2023/01/09 14:28:22;;;;;;;0.50;0.50;;;;;;;;;;5075456;28;20286;-59
2023/01/09 14:31:05;;;;;;;3.50;0.63;;;;;;;;;;5072408;28;20551;-59
2023/01/09 14:33:32;;;;;;;3.65;0.68;;;;;;;;;;5075705;28;20212;-59
2023/01/09 14:36:04;;;;;;;0.40;0.40;;;;;;;;;;5066342;28;20248;-61
2023/01/09 14:38:33;;;;;;;1.38;0.55;;;;;;;;;;5073022;28;20212;-60
2023/01/09 14:41:01;;;;;;;0.80;0.50;;;;;;;;;;5073735;28;20220;-60
2023/01/09 14:43:33;;;;;;;0.30;0.30;;;;;;;;;;5059440;28;20216;-61
2023/01/09 14:46:03;;;;;;;1.63;0.57;;;;;;;;;;5059199;28;20576;-59
2023/01/09 14:48:31;;;;;;;0.82;0.77;;;;;;;;;;5076155;28;20585;-60
2023/01/09 14:50:58;;;;;;;0.57;0.57;;;;;;;;;;5076907;28;20212;-57
2023/01/09 14:53:25;;;;;;;0.38;0.38;;;;;;;;;;5075210;28;20212;-60
2023/01/09 14:55:54;;;;;;;0.73;0.45;;;;;;;;;;5068646;28;20245;-59
2023/01/09 14:58:24;;;;;;;0.52;0.40;;;;;;;;;;5075635;28;20276;-60
2023/01/09 15:00:56;;;;;;;0.57;0.50;;;;;;;;;;5063909;28;20208;-58
2023/01/09 15:03:24;;;;;;;3.63;0.60;;;;;;;;;;5077782;28;20618;-59
2023/01/09 15:05:50;;;;;;;0.90;0.90;;;;;;;;;;5063239;28;20216;-59